createdAt,value
2018-03-18T01:43:05.260Z,1014.36
2018-03-18T01:43:05.826Z,1014.35
2018-03-18T01:43:06.394Z,1014.35
2018-03-18T01:43:07.032Z,1014.39
2018-03-18T01:43:07.596Z,1014.40
2018-03-18T01:43:08.222Z,1014.35
2018-03-18T01:43:08.778Z,1014.40
2018-03-18T01:43:09.397Z,1014.42
2018-03-18T01:44:02.861Z,1014.40
2018-03-18T01:44:03.430Z,1014.37
2018-03-18T01:44:04.031Z,1014.34
2018-03-18T01:44:04.630Z,1014.34
2018-03-18T01:44:05.228Z,1014.29
2018-03-18T01:44:05.839Z,1014.33
2018-03-18T01:44:06.429Z,1014.32
2018-03-18T01:44:07.028Z,1014.35
2018-03-18T01:45:00.513Z,1014.33
2018-03-18T01:45:01.090Z,1014.28
2018-03-18T01:45:01.684Z,1014.31
2018-03-18T01:45:02.284Z,1014.28
2018-03-18T01:45:02.884Z,1014.30
2018-03-18T01:45:03.483Z,1014.31
2018-03-18T01:45:04.081Z,1014.29
2018-03-18T01:45:04.682Z,1014.26
2018-03-18T01:45:59.191Z,1014.31
2018-03-18T01:45:59.759Z,1014.28
2018-03-18T01:46:00.361Z,1014.32
2018-03-18T01:46:00.958Z,1014.24
2018-03-18T01:46:01.557Z,1014.26
2018-03-18T01:46:02.157Z,1014.27
2018-03-18T01:46:02.756Z,1014.22
2018-03-18T01:46:03.356Z,1014.25
2018-03-18T01:46:57.864Z,1014.31
2018-03-18T01:46:58.435Z,1014.31
2018-03-18T01:46:59.034Z,1014.32
2018-03-18T01:46:59.634Z,1014.33
2018-03-18T01:47:00.234Z,1014.35
2018-03-18T01:47:00.833Z,1014.34
2018-03-18T01:47:01.433Z,1014.38
2018-03-18T01:47:02.033Z,1014.31
2018-03-18T01:47:55.518Z,1014.28
2018-03-18T01:47:56.088Z,1014.27
2018-03-18T01:47:56.688Z,1014.29
2018-03-18T01:47:57.286Z,1014.31
2018-03-18T01:47:57.889Z,1014.30
2018-03-18T01:47:58.487Z,1014.39
2018-03-18T01:47:59.085Z,1014.42
2018-03-18T01:47:59.686Z,1014.38
2018-03-18T01:48:53.171Z,1014.32
2018-03-18T01:48:53.740Z,1014.31
2018-03-18T01:48:54.339Z,1014.27
2018-03-18T01:48:54.940Z,1014.32
2018-03-18T01:48:55.541Z,1014.30
2018-03-18T01:48:56.139Z,1014.29
2018-03-18T01:48:56.739Z,1014.32
2018-03-18T01:48:57.342Z,1014.30
2018-03-18T01:49:50.833Z,1014.37
2018-03-18T01:49:51.394Z,1014.35
2018-03-18T01:49:51.992Z,1014.35
2018-03-18T01:49:52.591Z,1014.38
2018-03-18T01:49:53.191Z,1014.39
2018-03-18T01:49:53.791Z,1014.29
2018-03-18T01:49:54.394Z,1014.26
2018-03-18T01:49:54.991Z,1014.26
2018-03-18T01:50:48.475Z,1014.39
2018-03-18T01:50:49.046Z,1014.35
2018-03-18T01:50:49.657Z,1014.35
2018-03-18T01:50:50.243Z,1014.41
2018-03-18T01:50:50.845Z,1014.40
2018-03-18T01:50:51.442Z,1014.46
2018-03-18T01:50:52.045Z,1014.48
2018-03-18T01:50:52.642Z,1014.50
2018-03-18T01:51:46.129Z,1014.29
2018-03-18T01:51:46.697Z,1014.21
2018-03-18T01:51:47.294Z,1014.18
2018-03-18T01:51:47.895Z,1014.18
2018-03-18T01:51:48.495Z,1014.17
2018-03-18T01:51:49.093Z,1014.14
2018-03-18T01:51:49.694Z,1014.23
2018-03-18T01:51:50.294Z,1014.27
2018-03-18T01:52:43.777Z,1014.29
2018-03-18T01:52:44.347Z,1014.28
2018-03-18T01:52:44.946Z,1014.27
2018-03-18T01:52:45.550Z,1014.28
2018-03-18T01:52:46.150Z,1014.25
2018-03-18T01:52:46.745Z,1014.27
2018-03-18T01:52:47.346Z,1014.21
2018-03-18T01:52:47.946Z,1014.28
2018-03-18T01:53:42.452Z,1014.27
2018-03-18T01:53:43.024Z,1014.23
2018-03-18T01:53:43.622Z,1014.21
2018-03-18T01:53:44.222Z,1014.24
2018-03-18T01:53:44.823Z,1014.28
2018-03-18T01:53:45.423Z,1014.29
2018-03-18T01:53:46.021Z,1014.28
2018-03-18T01:53:46.621Z,1014.29
2018-03-18T01:54:40.105Z,1014.26
2018-03-18T01:54:40.676Z,1014.24
2018-03-18T01:54:41.274Z,1014.25
2018-03-18T01:54:41.875Z,1014.23
2018-03-18T01:54:42.474Z,1014.25
2018-03-18T01:54:43.074Z,1014.24
2018-03-18T01:54:43.674Z,1014.19
2018-03-18T01:54:44.275Z,1014.18
2018-03-18T01:55:38.780Z,1014.20
2018-03-18T01:55:39.352Z,1014.19
2018-03-18T01:55:39.952Z,1014.12
2018-03-18T01:55:40.549Z,1014.19
2018-03-18T01:55:41.151Z,1014.18
2018-03-18T01:55:41.749Z,1014.21
2018-03-18T01:55:42.348Z,1014.18
2018-03-18T01:55:42.948Z,1014.15
2018-03-18T01:56:37.458Z,1014.18
2018-03-18T01:56:38.026Z,1014.19
2018-03-18T01:56:38.625Z,1014.20
2018-03-18T01:56:39.226Z,1014.19
2018-03-18T01:56:39.826Z,1014.22
2018-03-18T01:56:40.427Z,1014.22
2018-03-18T01:56:41.024Z,1014.21
2018-03-18T01:56:41.624Z,1014.20
2018-03-18T01:57:35.109Z,1014.24
2018-03-18T01:57:35.684Z,1014.23
2018-03-18T01:57:36.278Z,1014.26
2018-03-18T01:57:36.878Z,1014.26
2018-03-18T01:57:37.478Z,1014.27
2018-03-18T01:57:38.080Z,1014.27
2018-03-18T01:57:38.679Z,1014.28
2018-03-18T01:57:39.278Z,1014.28
2018-03-18T01:58:33.783Z,1014.15
2018-03-18T01:58:34.353Z,1014.11
2018-03-18T01:58:34.952Z,1014.12
2018-03-18T01:58:35.552Z,1014.13
2018-03-18T01:58:36.154Z,1014.14
2018-03-18T01:58:36.753Z,1014.14
2018-03-18T01:58:37.351Z,1014.15
2018-03-18T01:58:37.952Z,1014.14
2018-03-18T01:59:32.475Z,1014.36
2018-03-18T01:59:33.030Z,1014.36
2018-03-18T01:59:33.628Z,1014.29
2018-03-18T01:59:34.231Z,1014.29
2018-03-18T01:59:34.833Z,1014.25
2018-03-18T01:59:35.429Z,1014.31
2018-03-18T01:59:36.030Z,1014.30
2018-03-18T01:59:36.628Z,1014.37
2018-03-18T02:00:31.133Z,1014.17
2018-03-18T02:00:31.706Z,1014.17
2018-03-18T02:00:32.305Z,1014.09
2018-03-18T02:00:32.903Z,1014.18
2018-03-18T02:00:33.505Z,1014.21
2018-03-18T02:00:34.104Z,1014.17
2018-03-18T02:00:34.704Z,1014.20
2018-03-18T02:00:35.308Z,1014.16
2018-03-18T02:01:29.812Z,1014.16
2018-03-18T02:01:30.381Z,1014.17
2018-03-18T02:01:30.985Z,1014.21
2018-03-18T02:01:31.581Z,1014.18
2018-03-18T02:01:32.181Z,1014.21
2018-03-18T02:01:32.780Z,1014.25
2018-03-18T02:01:33.380Z,1014.19
2018-03-18T02:01:33.979Z,1014.23
2018-03-18T02:02:27.463Z,1014.18
2018-03-18T02:02:28.036Z,1014.20
2018-03-18T02:02:28.638Z,1014.22
2018-03-18T02:02:29.233Z,1014.22
2018-03-18T02:02:29.833Z,1014.24
2018-03-18T02:02:30.448Z,1014.25
2018-03-18T02:02:31.035Z,1014.29
2018-03-18T02:02:31.629Z,1014.29
2018-03-18T02:03:26.143Z,1014.24
2018-03-18T02:03:26.708Z,1014.20
2018-03-18T02:03:27.308Z,1014.21
2018-03-18T02:03:27.906Z,1014.24
2018-03-18T02:03:28.507Z,1014.26
2018-03-18T02:03:29.109Z,1014.22
2018-03-18T02:03:29.707Z,1014.27
2018-03-18T02:03:30.308Z,1014.28
2018-03-18T02:04:23.791Z,1014.28
2018-03-18T02:04:24.370Z,1014.25
2018-03-18T02:04:24.964Z,1014.30
2018-03-18T02:04:25.587Z,1014.28
2018-03-18T02:04:26.157Z,1014.28
2018-03-18T02:04:26.757Z,1014.25
2018-03-18T02:04:27.358Z,1014.30
2018-03-18T02:04:27.963Z,1014.26
2018-03-18T02:05:21.441Z,1014.30
2018-03-18T02:05:22.012Z,1014.28
2018-03-18T02:05:22.614Z,1014.30
2018-03-18T02:05:23.211Z,1014.29
2018-03-18T02:05:23.811Z,1014.25
2018-03-18T02:05:24.411Z,1014.25
2018-03-18T02:05:25.011Z,1014.25
2018-03-18T02:05:25.609Z,1014.30
2018-03-18T02:06:19.094Z,1014.13
2018-03-18T02:06:19.665Z,1014.16
2018-03-18T02:06:20.264Z,1014.11
2018-03-18T02:06:20.863Z,1014.11
2018-03-18T02:06:21.463Z,1014.09
2018-03-18T02:06:22.074Z,1014.16
2018-03-18T02:06:22.662Z,1014.18
2018-03-18T02:06:23.262Z,1014.21
2018-03-18T02:07:17.770Z,1014.20
2018-03-18T02:07:18.343Z,1014.21
2018-03-18T02:07:18.936Z,1014.22
2018-03-18T02:07:19.537Z,1014.20
2018-03-18T02:07:20.140Z,1014.20
2018-03-18T02:07:20.737Z,1014.18
2018-03-18T02:07:21.337Z,1014.17
2018-03-18T02:07:21.941Z,1014.16
2018-03-18T02:08:15.422Z,1014.20
2018-03-18T02:08:15.990Z,1014.22
2018-03-18T02:08:16.594Z,1014.22
2018-03-18T02:08:17.190Z,1014.15
2018-03-18T02:08:17.791Z,1014.19
2018-03-18T02:08:18.389Z,1014.18
2018-03-18T02:08:18.989Z,1014.16
2018-03-18T02:08:19.595Z,1014.19
2018-03-18T02:09:13.072Z,1014.06
2018-03-18T02:09:13.665Z,1014.07
2018-03-18T02:09:14.245Z,1014.16
2018-03-18T02:09:14.844Z,1014.11
2018-03-18T02:09:15.443Z,1014.14
2018-03-18T02:09:16.042Z,1014.15
2018-03-18T02:09:16.641Z,1014.17
2018-03-18T02:09:17.241Z,1014.14
2018-03-18T02:10:11.748Z,1014.12
2018-03-18T02:10:12.317Z,1014.11
2018-03-18T02:10:12.917Z,1014.14
2018-03-18T02:10:13.519Z,1014.16
2018-03-18T02:10:14.117Z,1014.14
2018-03-18T02:10:14.715Z,1014.17
2018-03-18T02:10:15.316Z,1014.16
2018-03-18T02:10:15.916Z,1014.17
2018-03-18T02:11:10.424Z,1014.19
2018-03-18T02:11:10.994Z,1014.17
2018-03-18T02:11:11.592Z,1014.16
2018-03-18T02:11:12.194Z,1014.17
2018-03-18T02:11:12.792Z,1014.17
2018-03-18T02:11:13.393Z,1014.16
2018-03-18T02:11:13.992Z,1014.18
2018-03-18T02:11:14.591Z,1014.18
2018-03-18T02:12:08.075Z,1014.20
2018-03-18T02:12:08.646Z,1014.20
2018-03-18T02:12:09.249Z,1014.19
2018-03-18T02:12:09.846Z,1014.19
2018-03-18T02:12:10.451Z,1014.17
2018-03-18T02:13:24.978Z,1014.16
2018-03-18T02:13:25.548Z,1014.14
2018-03-18T02:13:26.148Z,1014.18
2018-03-18T02:13:26.748Z,1014.20
2018-03-18T02:13:27.347Z,1014.20
2018-03-18T02:13:27.947Z,1014.22
2018-03-18T02:13:28.546Z,1014.18
2018-03-18T02:13:29.147Z,1014.22
2018-03-18T02:14:23.654Z,1014.11
2018-03-18T02:14:24.223Z,1014.11
2018-03-18T02:14:24.823Z,1014.18
2018-03-18T02:14:25.423Z,1014.14
2018-03-18T02:14:26.022Z,1014.17
2018-03-18T02:14:26.621Z,1014.13
2018-03-18T02:14:27.222Z,1014.12
2018-03-18T02:14:27.823Z,1014.08
2018-03-18T02:15:21.306Z,1014.17
2018-03-18T02:15:21.875Z,1014.17
2018-03-18T02:15:22.476Z,1014.13
2018-03-18T02:15:23.075Z,1014.13
2018-03-18T02:15:23.675Z,1014.08
2018-03-18T02:15:24.275Z,1014.12
2018-03-18T02:15:24.895Z,1014.05
2018-03-18T02:15:25.474Z,1014.08
2018-03-18T02:16:19.989Z,1014.07
2018-03-18T02:16:20.552Z,1014.11
2018-03-18T02:16:21.150Z,1014.08
2018-03-18T02:16:21.757Z,1014.14
2018-03-18T02:16:22.350Z,1014.10
2018-03-18T02:16:22.950Z,1014.12
2018-03-18T02:16:23.550Z,1014.11
2018-03-18T02:16:24.150Z,1014.21
2018-03-18T02:17:18.657Z,1014.17
2018-03-18T02:17:19.226Z,1014.16
2018-03-18T02:17:19.825Z,1014.21
2018-03-18T02:17:20.426Z,1014.19
2018-03-18T02:17:21.025Z,1014.19
2018-03-18T02:17:21.625Z,1014.19
2018-03-18T02:17:22.225Z,1014.19
2018-03-18T02:17:22.824Z,1014.19
2018-03-18T02:18:16.309Z,1014.26
2018-03-18T02:18:16.880Z,1014.24
2018-03-18T02:18:17.485Z,1014.19
2018-03-18T02:18:18.079Z,1014.20
2018-03-18T02:18:18.679Z,1014.21
2018-03-18T02:18:19.279Z,1014.19
2018-03-18T02:18:19.877Z,1014.22
2018-03-18T02:18:20.478Z,1014.19
2018-03-18T02:19:14.984Z,1014.20
2018-03-18T02:19:15.553Z,1014.21
2018-03-18T02:19:16.152Z,1014.14
2018-03-18T02:19:16.753Z,1014.14
2018-03-18T02:19:17.353Z,1014.15
2018-03-18T02:19:17.952Z,1014.13
2018-03-18T02:19:18.552Z,1014.12
2018-03-18T02:19:19.152Z,1014.18
2018-03-18T02:20:12.637Z,1014.20
2018-03-18T02:20:13.206Z,1014.21
2018-03-18T02:20:13.809Z,1014.20
2018-03-18T02:20:14.406Z,1014.20
2018-03-18T02:20:15.005Z,1014.15
2018-03-18T02:20:15.604Z,1014.17
2018-03-18T02:20:16.206Z,1014.16
2018-03-18T02:20:16.805Z,1014.13
2018-03-18T02:21:10.288Z,1014.18
2018-03-18T02:21:10.884Z,1014.16
2018-03-18T02:21:11.462Z,1014.15
2018-03-18T02:21:12.056Z,1014.16
2018-03-18T02:21:12.657Z,1014.14
2018-03-18T02:21:13.257Z,1014.11
2018-03-18T02:21:13.857Z,1014.16
2018-03-18T02:21:14.456Z,1014.12
2018-03-18T02:22:08.966Z,1014.15
2018-03-18T02:22:09.569Z,1014.15
2018-03-18T02:22:10.137Z,1014.15
2018-03-18T02:22:10.733Z,1014.18
2018-03-18T02:22:11.333Z,1014.16
2018-03-18T02:22:11.932Z,1014.16
2018-03-18T02:22:12.531Z,1014.17
2018-03-18T02:22:13.132Z,1014.18
2018-03-18T02:23:06.616Z,1014.18
2018-03-18T02:23:07.185Z,1014.16
2018-03-18T02:23:07.789Z,1014.13
2018-03-18T02:23:08.388Z,1014.15
2018-03-18T02:23:08.983Z,1014.11
2018-03-18T02:23:09.583Z,1014.11
2018-03-18T02:23:10.184Z,1014.15
2018-03-18T02:23:10.782Z,1014.11
2018-03-18T02:24:05.289Z,1014.11
2018-03-18T02:24:05.860Z,1014.12
2018-03-18T02:24:06.460Z,1014.13
2018-03-18T02:24:07.060Z,1014.13
2018-03-18T02:24:07.661Z,1014.08
2018-03-18T02:24:08.259Z,1014.11
2018-03-18T02:24:08.859Z,1014.13
2018-03-18T02:24:09.458Z,1014.10
2018-03-18T02:25:03.967Z,1014.18
2018-03-18T02:25:04.534Z,1014.16
2018-03-18T02:25:05.135Z,1014.19
2018-03-18T02:25:05.738Z,1014.15
2018-03-18T02:25:06.335Z,1014.16
2018-03-18T02:25:06.934Z,1014.09
2018-03-18T02:25:07.535Z,1014.11
2018-03-18T02:25:08.135Z,1014.11
2018-03-18T02:26:02.641Z,1014.10
2018-03-18T02:26:03.212Z,1014.12
2018-03-18T02:26:03.811Z,1014.13
2018-03-18T02:26:04.410Z,1014.10
2018-03-18T02:26:05.018Z,1014.11
2018-03-18T02:26:05.615Z,1014.06
2018-03-18T02:26:06.210Z,1014.09
2018-03-18T02:26:06.810Z,1014.08
2018-03-18T02:27:00.295Z,1014.12
2018-03-18T02:27:00.864Z,1014.15
2018-03-18T02:27:01.466Z,1014.16
2018-03-18T02:27:02.065Z,1014.21
2018-03-18T02:27:02.666Z,1014.25
2018-03-18T02:27:03.263Z,1014.26
2018-03-18T02:27:03.862Z,1014.26
2018-03-18T02:27:04.464Z,1014.26
2018-03-18T02:27:58.969Z,1014.07
2018-03-18T02:27:59.537Z,1014.06
2018-03-18T02:28:00.142Z,1014.07
2018-03-18T02:28:00.738Z,1014.12
2018-03-18T02:28:01.339Z,1014.14
2018-03-18T02:28:01.938Z,1014.15
2018-03-18T02:28:02.540Z,1014.18
2018-03-18T02:28:03.136Z,1014.15
2018-03-18T02:28:57.646Z,1014.08
2018-03-18T02:28:58.216Z,1014.10
2018-03-18T02:28:58.819Z,1014.10
2018-03-18T02:28:59.415Z,1014.14
2018-03-18T02:29:00.015Z,1014.14
2018-03-18T02:29:00.613Z,1014.19
2018-03-18T02:29:01.213Z,1014.15
2018-03-18T02:29:01.814Z,1014.13
2018-03-18T02:29:55.298Z,1014.10
2018-03-18T02:29:55.866Z,1014.09
2018-03-18T02:29:56.465Z,1014.05
2018-03-18T02:29:57.069Z,1014.07
2018-03-18T02:29:57.667Z,1014.08
2018-03-18T02:29:58.266Z,1014.05
2018-03-18T02:29:58.866Z,1014.08
2018-03-18T02:29:59.465Z,1014.06
2018-03-18T02:30:53.973Z,1014.11
2018-03-18T02:30:54.542Z,1014.10
2018-03-18T02:30:55.143Z,1014.10
2018-03-18T02:30:55.741Z,1014.07
2018-03-18T02:30:56.341Z,1014.10
2018-03-18T02:30:56.974Z,1014.10
2018-03-18T02:30:57.540Z,1014.06
2018-03-18T02:30:58.143Z,1014.07
2018-03-18T02:31:51.629Z,1014.10
2018-03-18T02:31:52.202Z,1014.12
2018-03-18T02:31:52.796Z,1014.09
2018-03-18T02:31:53.395Z,1014.08
2018-03-18T02:31:54.002Z,1014.05
2018-03-18T02:31:54.595Z,1014.08
2018-03-18T02:31:55.194Z,1014.07
2018-03-18T02:31:55.794Z,1014.10
2018-03-18T02:32:50.306Z,1014.15
2018-03-18T02:32:50.869Z,1014.11
2018-03-18T02:32:51.469Z,1014.13
2018-03-18T02:32:52.070Z,1014.18
2018-03-18T02:32:52.668Z,1014.16
2018-03-18T02:32:53.278Z,1014.17
2018-03-18T02:32:53.868Z,1014.17
2018-03-18T02:32:54.467Z,1014.13
2018-03-18T02:33:48.974Z,1014.13
2018-03-18T02:33:49.545Z,1014.11
2018-03-18T02:33:50.145Z,1014.09
2018-03-18T02:33:50.745Z,1014.14
2018-03-18T02:33:51.345Z,1014.10
2018-03-18T02:33:51.945Z,1014.10
2018-03-18T02:33:52.544Z,1014.11
2018-03-18T02:33:53.144Z,1014.12
2018-03-18T02:34:46.632Z,1014.05
2018-03-18T02:34:47.198Z,1014.12
2018-03-18T02:34:47.795Z,1014.01
2018-03-18T02:34:48.398Z,1014.06
2018-03-18T02:34:48.998Z,1014.06
2018-03-18T02:34:49.597Z,1014.03
2018-03-18T02:34:50.197Z,1014.09
2018-03-18T02:34:50.797Z,1014.08
2018-03-18T02:35:44.279Z,1014.07
2018-03-18T02:35:44.868Z,1014.06
2018-03-18T02:35:45.452Z,1014.05
2018-03-18T02:35:46.047Z,1014.07
2018-03-18T02:35:46.646Z,1014.05
2018-03-18T02:35:47.250Z,1014.07
2018-03-18T02:35:47.847Z,1014.08
2018-03-18T02:35:48.447Z,1014.06
2018-03-18T02:36:42.956Z,1014.17
2018-03-18T02:36:43.524Z,1014.09
2018-03-18T02:36:44.124Z,1014.09
2018-03-18T02:36:44.723Z,1014.09
2018-03-18T02:36:45.323Z,1014.11
2018-03-18T02:36:45.921Z,1014.10
2018-03-18T02:36:46.526Z,1014.05
2018-03-18T02:36:47.125Z,1014.08
2018-03-18T02:37:40.612Z,1014.14
2018-03-18T02:37:41.174Z,1014.13
2018-03-18T02:37:41.781Z,1014.16
2018-03-18T02:37:42.378Z,1014.09
2018-03-18T02:37:42.980Z,1014.11
2018-03-18T02:37:43.574Z,1014.12
2018-03-18T02:37:44.173Z,1014.11
2018-03-18T02:37:44.775Z,1014.07
2018-03-18T02:38:38.260Z,1013.97
2018-03-18T02:38:38.826Z,1013.96
2018-03-18T02:38:39.431Z,1013.97
2018-03-18T02:38:40.031Z,1013.96
2018-03-18T02:38:40.634Z,1013.98
2018-03-18T02:38:41.224Z,1014.00
2018-03-18T02:38:41.825Z,1014.03
2018-03-18T02:38:42.425Z,1014.05
2018-03-18T02:39:36.932Z,1014.22
2018-03-18T02:39:37.503Z,1014.22
2018-03-18T02:56:36.639Z,1014.08
2018-03-18T02:56:37.206Z,1014.05
2018-03-18T02:56:37.806Z,1014.06
2018-03-18T02:56:38.404Z,1014.01
2018-03-18T02:56:39.012Z,1013.99
2018-03-18T02:56:39.603Z,1014.04
2018-03-18T02:56:40.203Z,1013.98
2018-03-18T02:56:40.807Z,1014.00
2018-03-18T02:57:35.313Z,1013.97
2018-03-18T02:57:35.895Z,1013.97
2018-03-18T02:57:36.482Z,1013.97
2018-03-18T02:57:37.080Z,1013.96
2018-03-18T02:57:37.681Z,1013.96
2018-03-18T02:57:38.280Z,1013.95
2018-03-18T02:57:38.879Z,1013.96
2018-03-18T02:57:39.481Z,1013.92
2018-03-18T02:58:33.996Z,1014.02
2018-03-18T02:58:34.561Z,1014.01
2018-03-18T02:58:35.157Z,1014.00
2018-03-18T02:58:35.757Z,1013.99
2018-03-18T02:58:36.356Z,1013.97
2018-03-18T02:58:36.961Z,1014.01
2018-03-18T02:58:37.556Z,1014.05
2018-03-18T02:58:38.156Z,1014.00
2018-03-18T02:59:32.666Z,1013.95
2018-03-18T02:59:33.234Z,1013.93
2018-03-18T02:59:33.834Z,1014.00
2018-03-18T02:59:34.440Z,1013.99
2018-03-18T02:59:35.032Z,1014.00
2018-03-18T02:59:35.632Z,1014.04
2018-03-18T02:59:36.231Z,1014.04
2018-03-18T02:59:36.830Z,1014.02
2018-03-18T03:00:31.340Z,1013.95
2018-03-18T03:00:31.924Z,1013.97
2018-03-18T03:00:32.516Z,1014.00
2018-03-18T03:00:33.110Z,1013.96
2018-03-18T03:00:33.711Z,1013.97
2018-03-18T03:00:34.310Z,1014.01
2018-03-18T03:00:34.917Z,1013.99
2018-03-18T03:00:35.508Z,1014.00
2018-03-18T03:01:30.015Z,1013.97
2018-03-18T03:01:30.594Z,1013.97
2018-03-18T03:01:31.186Z,1013.93
2018-03-18T03:01:31.790Z,1014.01
2018-03-18T03:01:32.392Z,1013.91
2018-03-18T03:01:32.987Z,1013.97
2018-03-18T03:01:33.587Z,1013.92
2018-03-18T03:01:34.182Z,1013.93
2018-03-18T03:02:28.697Z,1013.99
2018-03-18T03:02:29.263Z,1014.01
2018-03-18T03:02:29.862Z,1014.00
2018-03-18T03:02:30.463Z,1014.05
2018-03-18T03:02:31.064Z,1014.06
2018-03-18T03:02:31.660Z,1014.07
2018-03-18T03:02:32.261Z,1014.04
2018-03-18T03:02:32.860Z,1014.03
2018-03-18T03:03:26.345Z,1013.94
2018-03-18T03:03:26.915Z,1013.95
2018-03-18T03:03:27.515Z,1013.93
2018-03-18T03:03:28.130Z,1013.95
2018-03-18T03:03:28.717Z,1013.92
2018-03-18T03:03:29.314Z,1013.98
2018-03-18T03:03:29.915Z,1014.02
2018-03-18T03:03:30.513Z,1013.99
2018-03-18T03:04:23.996Z,1014.03
2018-03-18T03:04:24.568Z,1014.01
2018-03-18T03:04:25.167Z,1014.00
2018-03-18T03:04:25.767Z,1014.05
2018-03-18T03:04:26.370Z,1014.03
2018-03-18T03:04:26.969Z,1013.95
2018-03-18T03:04:27.566Z,1013.97
2018-03-18T03:04:28.168Z,1013.99
2018-03-18T03:05:22.679Z,1013.90
2018-03-18T03:05:23.242Z,1013.93
2018-03-18T03:05:23.841Z,1013.92
2018-03-18T03:05:24.442Z,1013.92
2018-03-18T03:05:25.044Z,1013.95
2018-03-18T03:05:25.676Z,1013.90
2018-03-18T03:05:26.239Z,1013.94
2018-03-18T03:05:26.841Z,1013.92
2018-03-18T03:06:21.347Z,1013.97
2018-03-18T03:06:21.918Z,1013.96
2018-03-18T03:06:22.517Z,1013.95
2018-03-18T03:06:23.124Z,1013.94
2018-03-18T03:06:23.717Z,1013.93
2018-03-18T03:06:24.318Z,1013.90
2018-03-18T03:06:24.916Z,1013.95
2018-03-18T03:06:25.517Z,1013.97
2018-03-18T03:07:20.024Z,1013.90
2018-03-18T03:07:20.598Z,1013.88
2018-03-18T03:07:21.194Z,1013.86
2018-03-18T03:07:21.793Z,1013.86
2018-03-18T03:07:22.397Z,1013.88
2018-03-18T03:07:22.991Z,1013.88
2018-03-18T03:07:23.592Z,1013.88
2018-03-18T03:07:24.193Z,1013.88
2018-03-18T03:08:18.700Z,1013.94
2018-03-18T03:08:19.271Z,1013.95
2018-03-18T03:08:19.883Z,1013.93
2018-03-18T03:08:20.471Z,1013.92
2018-03-18T03:08:21.067Z,1013.95
2018-03-18T03:08:21.677Z,1013.92
2018-03-18T03:08:22.266Z,1013.93
2018-03-18T03:08:22.866Z,1013.87
2018-03-18T03:09:16.351Z,1013.95
2018-03-18T03:09:16.922Z,1013.94
2018-03-18T03:09:17.521Z,1013.95
2018-03-18T03:09:18.120Z,1013.94
2018-03-18T03:09:18.721Z,1013.99
2018-03-18T03:09:19.320Z,1013.95
2018-03-18T03:09:19.922Z,1014.00
2018-03-18T03:09:20.522Z,1013.97
2018-03-18T03:10:15.028Z,1013.91
2018-03-18T03:10:15.596Z,1013.92
2018-03-18T03:10:16.195Z,1013.91
2018-03-18T03:10:16.796Z,1013.85
2018-03-18T03:10:17.397Z,1013.95
2018-03-18T03:10:17.995Z,1013.88
2018-03-18T03:10:18.596Z,1013.88
2018-03-18T03:10:19.195Z,1013.91
2018-03-18T03:11:13.703Z,1013.87
2018-03-18T03:11:14.293Z,1013.85
2018-03-18T03:11:14.871Z,1013.82
2018-03-18T03:11:15.471Z,1013.86
2018-03-18T03:11:16.073Z,1013.86
2018-03-18T03:11:16.671Z,1013.86
2018-03-18T03:11:17.269Z,1013.86
2018-03-18T03:11:17.870Z,1013.87
2018-03-18T03:12:11.354Z,1013.94
2018-03-18T03:12:11.922Z,1013.92
2018-03-18T03:12:12.523Z,1013.87
2018-03-18T03:12:13.124Z,1013.85
2018-03-18T03:12:13.724Z,1013.82
2018-03-18T03:12:14.361Z,1013.80
2018-03-18T03:12:14.929Z,1013.84
2018-03-18T03:12:15.533Z,1013.91
2018-03-18T03:13:09.007Z,1013.83
2018-03-18T03:13:09.576Z,1013.79
2018-03-18T03:13:10.188Z,1013.77
2018-03-18T03:13:10.776Z,1013.85
2018-03-18T03:13:11.375Z,1013.86
2018-03-18T03:13:11.974Z,1013.92
2018-03-18T03:13:12.575Z,1013.99
2018-03-18T03:13:13.174Z,1014.03
2018-03-18T03:14:06.657Z,1013.92
2018-03-18T03:14:07.229Z,1013.92
2018-03-18T03:14:07.834Z,1013.91
2018-03-18T03:14:08.428Z,1013.94
2018-03-18T03:14:09.027Z,1013.95
2018-03-18T03:14:09.628Z,1013.92
2018-03-18T03:14:10.227Z,1013.92
2018-03-18T03:14:10.827Z,1013.93
2018-03-18T03:15:05.335Z,1013.93
2018-03-18T03:15:05.906Z,1013.90
2018-03-18T03:15:06.502Z,1013.91
2018-03-18T03:15:07.102Z,1013.93
2018-03-18T03:15:07.706Z,1013.96
2018-03-18T03:15:08.301Z,1013.99
2018-03-18T03:15:08.900Z,1013.94
2018-03-18T03:15:09.502Z,1013.99
2018-03-18T03:16:04.008Z,1013.96
2018-03-18T03:16:04.579Z,1013.91
2018-03-18T03:16:05.177Z,1014.00
2018-03-18T03:16:05.780Z,1013.98
2018-03-18T03:16:06.377Z,1013.97
2018-03-18T03:16:06.982Z,1013.96
2018-03-18T03:16:07.577Z,1013.97
2018-03-18T03:16:08.177Z,1013.94
2018-03-18T03:17:02.684Z,1013.88
2018-03-18T03:17:03.254Z,1013.88
2018-03-18T03:17:03.853Z,1013.85
2018-03-18T03:17:04.453Z,1013.90
2018-03-18T03:17:05.058Z,1013.89
2018-03-18T03:17:05.677Z,1013.88
2018-03-18T03:17:06.250Z,1013.88
2018-03-18T03:17:06.853Z,1013.89
2018-03-18T03:18:01.362Z,1014.01
2018-03-18T03:18:01.929Z,1013.99
2018-03-18T03:18:02.529Z,1013.93
2018-03-18T03:18:03.128Z,1013.95
2018-03-18T03:18:03.728Z,1013.96
2018-03-18T03:18:04.328Z,1013.96
2018-03-18T03:18:04.929Z,1013.91
2018-03-18T03:18:05.534Z,1013.97
2018-03-18T03:18:59.012Z,1013.87
2018-03-18T03:18:59.583Z,1013.83
2018-03-18T03:19:00.184Z,1013.90
2018-03-18T03:19:00.782Z,1013.91
2018-03-18T03:19:01.382Z,1013.90
2018-03-18T03:19:01.982Z,1013.88
2018-03-18T03:19:02.584Z,1013.93
2018-03-18T03:19:03.186Z,1013.91
2018-03-18T03:19:56.663Z,1013.93
2018-03-18T03:19:57.233Z,1013.91
2018-03-18T03:19:57.840Z,1013.89
2018-03-18T03:19:58.434Z,1013.90
2018-03-18T03:19:59.032Z,1013.95
2018-03-18T03:19:59.632Z,1013.94
2018-03-18T03:20:00.232Z,1013.94
2018-03-18T03:20:00.833Z,1013.95
2018-03-18T03:20:54.317Z,1014.02
2018-03-18T03:20:54.885Z,1014.02
2018-03-18T03:20:55.484Z,1013.97
2018-03-18T03:20:56.085Z,1014.02
2018-03-18T03:20:56.686Z,1014.06
2018-03-18T03:20:57.285Z,1014.07
2018-03-18T03:20:57.888Z,1014.05
2018-03-18T03:20:58.484Z,1014.12
2018-03-18T03:21:52.989Z,1013.91
2018-03-18T03:21:53.561Z,1013.92
2018-03-18T03:21:54.164Z,1013.93
2018-03-18T03:21:54.760Z,1013.96
2018-03-18T03:21:55.361Z,1013.97
2018-03-18T03:21:55.960Z,1013.90
2018-03-18T03:21:56.561Z,1013.97
2018-03-18T03:21:57.160Z,1013.95
2018-03-18T03:22:50.642Z,1014.03
2018-03-18T03:22:51.213Z,1014.04
2018-03-18T03:22:51.817Z,1014.00
2018-03-18T03:22:52.412Z,1013.99
2018-03-18T03:22:53.012Z,1013.95
2018-03-18T03:22:53.611Z,1013.93
2018-03-18T03:22:54.212Z,1013.96
2018-03-18T03:22:54.811Z,1013.92
2018-03-18T03:23:48.295Z,1014.07
2018-03-18T03:23:48.864Z,1014.03
2018-03-18T03:23:49.470Z,1014.08
2018-03-18T03:23:50.065Z,1014.04
2018-03-18T03:23:50.668Z,1013.99
2018-03-18T03:23:51.265Z,1013.95
2018-03-18T03:23:51.864Z,1013.94
2018-03-18T03:23:52.463Z,1013.93
2018-03-18T03:24:46.969Z,1013.92
2018-03-18T03:24:47.540Z,1013.93
2018-03-18T03:24:48.138Z,1013.90
2018-03-18T03:24:48.739Z,1013.93
2018-03-18T03:24:49.338Z,1013.93
2018-03-18T03:24:49.940Z,1013.94
2018-03-18T03:24:50.537Z,1013.94
2018-03-18T03:24:51.138Z,1013.93
2018-03-18T03:25:45.645Z,1013.88
2018-03-18T03:25:46.217Z,1013.91
2018-03-18T03:25:46.825Z,1013.91
2018-03-18T03:25:47.416Z,1013.95
2018-03-18T03:25:48.014Z,1013.96
2018-03-18T03:25:48.614Z,1013.97
2018-03-18T03:25:49.215Z,1013.97
2018-03-18T03:25:49.815Z,1013.96
2018-03-18T03:26:43.299Z,1013.86
2018-03-18T03:26:43.868Z,1013.84
2018-03-18T03:26:44.469Z,1013.88
2018-03-18T03:26:45.068Z,1013.90
2018-03-18T03:26:45.672Z,1013.90
2018-03-18T03:26:46.267Z,1013.93
2018-03-18T03:26:46.867Z,1013.96
2018-03-18T03:26:47.465Z,1013.95
2018-03-18T03:27:40.949Z,1013.98
2018-03-18T03:27:41.520Z,1013.98
2018-03-18T03:27:42.123Z,1013.95
2018-03-18T03:27:42.718Z,1014.00
2018-03-18T03:27:43.318Z,1013.97
2018-03-18T03:27:43.918Z,1013.91
2018-03-18T03:27:44.518Z,1013.95